createdAt,value
2022-10-13T00:01:25.630Z,29.10
2022-10-13T00:03:55.063Z,34.20
2022-10-13T00:06:27.475Z,32.70
2022-10-13T00:08:56.879Z,35.00
2022-10-13T00:11:28.257Z,36.20
2022-10-13T00:13:59.967Z,34.10
2022-10-13T00:16:33.027Z,33.90
2022-10-13T00:19:02.334Z,36.20
2022-10-13T00:21:30.851Z,36.90
2022-10-13T00:23:59.721Z,31.10
2022-10-13T00:26:28.473Z,33.10
2022-10-13T00:28:57.434Z,36.70
2022-10-13T00:31:29.863Z,36.10
2022-10-13T00:33:59.983Z,24.90
2022-10-13T00:36:29.347Z,25.60
2022-10-13T00:38:58.638Z,28.40
2022-10-13T00:41:27.425Z,26.10
2022-10-13T00:44:19.104Z,26.70
2022-10-13T00:46:47.594Z,22.00
2022-10-13T00:49:16.120Z,24.10
2022-10-13T00:51:50.465Z,21.70
2022-10-13T00:54:25.087Z,19.60
2022-10-13T00:56:54.515Z,22.60
2022-10-13T00:59:29.401Z,22.10
2022-10-13T01:01:59.699Z,21.50
2022-10-13T01:04:34.902Z,19.60
2022-10-13T01:07:04.809Z,20.10
2022-10-13T01:09:38.010Z,20.30
2022-10-13T01:12:48.788Z,22.00
2022-10-13T01:15:43.199Z,23.40
2022-10-13T01:18:25.661Z,24.10
2022-10-13T01:21:58.863Z,22.50
2022-10-13T01:25:09.509Z,19.80
2022-10-13T01:28:28.088Z,20.10
2022-10-13T01:31:10.752Z,21.50
2022-10-13T01:33:56.835Z,22.90
2022-10-13T01:36:57.598Z,20.30
2022-10-13T01:39:44.766Z,22.00
2022-10-13T01:42:31.592Z,22.00
2022-10-13T01:45:02.841Z,23.70
2022-10-13T01:47:34.608Z,25.10
2022-10-13T01:50:06.470Z,19.70
2022-10-13T01:52:39.466Z,22.80
2022-10-13T01:55:11.564Z,21.00
2022-10-13T01:57:43.816Z,24.50
2022-10-13T02:00:19.226Z,21.40
2022-10-13T02:03:08.754Z,22.80
2022-10-13T02:06:02.501Z,21.50
2022-10-13T02:08:45.304Z,22.90
2022-10-13T02:11:22.448Z,19.10
2022-10-13T02:14:28.293Z,20.60
2022-10-13T02:17:01.983Z,22.40
2022-10-13T02:19:34.433Z,23.40
2022-10-13T02:22:04.600Z,22.00
2022-10-13T02:24:33.445Z,18.50
2022-10-13T02:27:02.306Z,21.30
2022-10-13T02:29:30.951Z,20.80
2022-10-13T02:31:59.474Z,22.60
2022-10-13T02:34:28.143Z,17.90
2022-10-13T02:36:56.894Z,18.90
2022-10-13T02:39:25.443Z,19.10
2022-10-13T02:41:53.958Z,24.10
2022-10-13T02:44:25.067Z,22.40
2022-10-13T02:46:53.598Z,19.80
2022-10-13T02:49:22.241Z,17.20
2022-10-13T02:51:50.800Z,17.80
2022-10-13T02:54:19.829Z,18.40
2022-10-13T02:56:48.438Z,17.40
2022-10-13T02:59:17.087Z,16.40
2022-10-13T03:01:45.671Z,18.60
2022-10-13T03:04:14.298Z,18.70
2022-10-13T03:06:42.804Z,17.30
2022-10-13T03:09:12.383Z,16.90
2022-10-13T03:11:43.363Z,19.40
2022-10-13T03:14:11.949Z,17.30
2022-10-13T03:16:40.736Z,17.20
2022-10-13T03:19:11.938Z,18.40
2022-10-13T03:21:40.603Z,18.30
2022-10-13T03:24:09.375Z,22.50
2022-10-13T03:26:38.314Z,16.00
2022-10-13T03:29:06.813Z,17.00
2022-10-13T03:31:35.683Z,16.10
2022-10-13T03:34:04.235Z,16.30
2022-10-13T03:36:32.771Z,16.50
2022-10-13T03:39:01.388Z,16.10
2022-10-13T03:41:29.956Z,18.80
2022-10-13T03:43:58.469Z,18.80
2022-10-13T03:46:30.222Z,19.80
2022-10-13T03:48:59.898Z,17.10
2022-10-13T03:51:30.926Z,16.90
2022-10-13T03:53:59.620Z,15.60
2022-10-13T03:56:28.717Z,15.00
2022-10-13T03:59:00.636Z,18.20
2022-10-13T04:01:30.927Z,16.80
2022-10-13T04:04:02.626Z,16.80
2022-10-13T04:06:31.934Z,17.80
2022-10-13T04:09:00.538Z,14.00
2022-10-13T04:11:29.702Z,16.70
2022-10-13T04:13:59.069Z,16.00
2022-10-13T04:16:31.336Z,16.60
2022-10-13T04:19:05.659Z,15.00
2022-10-13T04:21:35.965Z,15.80
2022-10-13T04:24:06.068Z,13.20
2022-10-13T04:26:36.572Z,15.20
2022-10-13T04:29:11.158Z,18.40
2022-10-13T04:31:42.995Z,17.50
2022-10-13T04:34:12.404Z,14.80
2022-10-13T04:36:40.969Z,15.20
2022-10-13T04:39:09.489Z,15.70
2022-10-13T04:41:38.044Z,17.10
2022-10-13T04:44:06.559Z,17.80
2022-10-13T04:46:35.169Z,14.40
2022-10-13T04:49:04.934Z,20.40
2022-10-13T04:51:33.823Z,15.40
2022-10-13T04:54:03.492Z,14.40
2022-10-13T04:56:32.591Z,15.80
2022-10-13T04:59:06.082Z,17.70
2022-10-13T05:01:36.146Z,18.80
2022-10-13T05:04:08.124Z,14.20
2022-10-13T05:07:05.364Z,17.00
2022-10-13T05:09:30.944Z,14.00
2022-10-13T05:11:59.517Z,14.60
2022-10-13T05:14:28.172Z,14.20
2022-10-13T05:16:56.736Z,15.60
2022-10-13T05:19:25.279Z,13.80
2022-10-13T05:21:53.817Z,15.70
2022-10-13T05:24:31.171Z,12.10
2022-10-13T05:26:59.871Z,17.00
2022-10-13T05:29:28.871Z,20.40
2022-10-13T05:31:57.510Z,11.10
2022-10-13T05:34:26.183Z,15.60
2022-10-13T05:36:54.750Z,12.00
2022-10-13T05:39:23.314Z,13.60
2022-10-13T05:41:51.834Z,17.10
2022-10-13T05:44:23.199Z,17.30
2022-10-13T05:46:55.010Z,17.10
2022-10-13T05:49:23.584Z,16.90
2022-10-13T05:52:04.299Z,23.20
2022-10-13T05:54:46.956Z,13.20
2022-10-13T05:57:24.581Z,16.30
2022-10-13T05:59:58.429Z,13.20
2022-10-13T06:02:35.174Z,13.00
2022-10-13T06:05:06.396Z,15.90
2022-10-13T06:07:35.086Z,13.50
2022-10-13T06:10:03.898Z,14.80
2022-10-13T06:12:32.488Z,10.70
2022-10-13T06:15:05.279Z,15.40
2022-10-13T06:17:39.331Z,13.20
2022-10-13T06:22:38.126Z,13.60
2022-10-13T06:25:07.862Z,13.10
2022-10-13T06:27:36.459Z,15.60
2022-10-13T06:30:05.849Z,13.00
2022-10-13T06:32:34.700Z,18.20
2022-10-13T06:35:03.747Z,17.30
2022-10-13T06:37:32.373Z,12.60
2022-10-13T06:40:00.989Z,14.50
2022-10-13T06:42:32.308Z,12.80
2022-10-13T06:45:10.857Z,12.20
2022-10-13T06:47:42.093Z,13.70
2022-10-13T06:50:10.989Z,13.50
2022-10-13T06:52:39.777Z,14.60
2022-10-13T06:55:08.767Z,17.80
2022-10-13T06:57:38.401Z,20.90
2022-10-13T07:00:09.032Z,15.00
2022-10-13T07:02:39.208Z,11.10
2022-10-13T07:05:08.373Z,14.10
2022-10-13T07:07:36.920Z,14.60
2022-10-13T07:10:06.348Z,11.90
2022-10-13T07:12:34.953Z,14.00
2022-10-13T07:15:03.929Z,14.90
2022-10-13T07:17:32.436Z,13.80
2022-10-13T07:20:07.372Z,14.10
2022-10-13T07:22:44.500Z,13.30
2022-10-13T07:25:13.369Z,12.80
2022-10-13T07:27:42.284Z,12.70
2022-10-13T07:30:12.742Z,14.60
2022-10-13T07:32:42.530Z,13.60
2022-10-13T07:35:12.111Z,13.70
2022-10-13T07:37:40.799Z,14.90
2022-10-13T07:40:10.190Z,12.30
2022-10-13T07:42:50.865Z,18.50
2022-10-13T07:45:19.388Z,14.40
2022-10-13T07:47:48.024Z,10.60
2022-10-13T07:50:16.678Z,13.70
2022-10-13T07:52:45.304Z,17.10
2022-10-13T07:55:14.044Z,13.70
2022-10-13T07:57:42.558Z,16.60
2022-10-13T08:00:12.250Z,15.30
2022-10-13T08:02:43.736Z,14.10
2022-10-13T08:05:12.294Z,17.80
2022-10-13T08:07:40.871Z,16.40
2022-10-13T08:10:09.803Z,19.90
2022-10-13T08:12:38.737Z,18.40
2022-10-13T08:15:09.556Z,18.40
2022-10-13T08:17:38.267Z,16.80
2022-10-13T08:20:07.925Z,18.00
2022-10-13T08:22:36.678Z,22.30
2022-10-13T08:25:07.456Z,24.20
2022-10-13T08:27:50.660Z,23.20
2022-10-13T08:32:48.915Z,19.90
2022-10-13T08:35:17.557Z,19.30
2022-10-13T08:37:46.075Z,18.80
2022-10-13T08:40:23.133Z,17.80
2022-10-13T08:42:54.534Z,20.80
2022-10-13T08:45:45.921Z,16.40
2022-10-13T08:48:27.987Z,17.60
2022-10-13T08:51:03.416Z,18.40
2022-10-13T08:53:37.515Z,17.50
2022-10-13T08:56:42.748Z,15.10
2022-10-13T08:59:15.037Z,15.30
2022-10-13T09:01:49.095Z,19.00
2022-10-13T09:04:36.574Z,18.40
2022-10-13T09:07:19.908Z,19.40
2022-10-13T09:09:54.876Z,16.40
2022-10-13T09:12:26.493Z,17.30
2022-10-13T09:15:12.205Z,15.50
2022-10-13T09:17:42.002Z,18.00
2022-10-13T09:20:25.140Z,19.00
2022-10-13T09:23:07.578Z,16.90
2022-10-13T09:25:45.900Z,16.30
2022-10-13T09:28:27.676Z,20.00
2022-10-13T09:31:26.927Z,18.20
2022-10-13T09:34:18.942Z,17.10
2022-10-13T09:37:06.852Z,16.40
2022-10-13T09:39:35.381Z,15.30
2022-10-13T09:42:27.118Z,17.50
2022-10-13T09:45:15.874Z,15.10
2022-10-13T09:48:05.955Z,38.30
2022-10-13T09:50:35.900Z,22.00
2022-10-13T09:53:35.619Z,16.40
2022-10-13T09:56:19.656Z,22.20
2022-10-13T09:59:13.421Z,16.50
2022-10-13T10:01:46.429Z,16.50
2022-10-13T10:04:20.588Z,20.30
2022-10-13T10:06:49.442Z,23.10
2022-10-13T10:09:33.616Z,12.80
2022-10-13T10:12:04.103Z,21.90
2022-10-13T10:14:37.027Z,12.80
2022-10-13T10:19:45.639Z,14.10
2022-10-13T10:22:38.395Z,21.40
2022-10-13T10:25:42.048Z,18.70
2022-10-13T10:28:32.111Z,15.20
2022-10-13T10:31:36.789Z,16.90
2022-10-13T10:34:35.826Z,15.20
2022-10-13T10:37:25.591Z,15.20
2022-10-13T10:40:04.244Z,16.60
2022-10-13T10:42:52.558Z,18.60
2022-10-13T10:45:27.013Z,20.30
2022-10-13T10:48:14.801Z,33.40
2022-10-13T10:50:43.452Z,13.90
2022-10-13T10:53:45.855Z,15.40
2022-10-13T10:56:32.113Z,16.30
2022-10-13T10:59:36.900Z,14.60
2022-10-13T11:02:08.451Z,13.50
2022-10-13T11:04:49.407Z,13.10
2022-10-13T11:07:23.972Z,13.90
2022-10-13T11:10:14.474Z,17.00
2022-10-13T11:12:52.254Z,15.20
2022-10-13T11:15:31.282Z,18.70
2022-10-13T11:17:59.790Z,17.10
2022-10-13T11:20:59.431Z,18.30
2022-10-13T11:23:34.117Z,15.20
2022-10-13T11:26:43.350Z,18.70
2022-10-13T11:29:20.057Z,18.50
2022-10-13T11:31:55.364Z,16.30
2022-10-13T11:34:32.219Z,12.90
2022-10-13T11:37:03.202Z,14.20
2022-10-13T11:39:37.935Z,15.20
2022-10-13T11:42:35.251Z,15.10
2022-10-13T11:45:34.702Z,16.70
2022-10-13T11:48:24.210Z,23.00
2022-10-13T11:51:26.193Z,15.20
2022-10-13T11:54:19.551Z,20.60
2022-10-13T11:59:37.770Z,18.20
2022-10-13T12:02:07.370Z,15.70
2022-10-13T12:04:36.021Z,17.40
2022-10-13T12:07:09.508Z,18.70
2022-10-13T12:09:54.492Z,17.10
2022-10-13T12:12:24.724Z,15.80
2022-10-13T12:15:01.072Z,14.40
2022-10-13T12:17:39.208Z,16.40
2022-10-13T12:20:28.059Z,14.50
2022-10-13T12:22:57.855Z,15.00
2022-10-13T12:25:29.456Z,14.20
2022-10-13T12:28:01.591Z,15.30
2022-10-13T12:30:38.706Z,15.50
2022-10-13T12:33:35.471Z,18.00
2022-10-13T12:36:22.883Z,13.40
2022-10-13T12:38:57.065Z,15.10
2022-10-13T12:41:35.696Z,11.70
2022-10-13T12:44:06.963Z,12.70
2022-10-13T12:46:40.593Z,13.60
2022-10-13T12:49:23.740Z,16.00
2022-10-13T12:52:14.611Z,16.20
2022-10-13T12:54:55.538Z,17.00
2022-10-13T12:57:38.168Z,15.00
2022-10-13T13:00:30.982Z,15.60
2022-10-13T13:03:03.773Z,14.10
2022-10-13T13:05:51.640Z,14.50
2022-10-13T13:08:31.870Z,14.90
2022-10-13T13:11:03.904Z,16.70
2022-10-13T13:13:32.407Z,15.70
2022-10-13T13:16:18.550Z,15.10
2022-10-13T13:18:51.887Z,15.80
2022-10-13T13:21:21.087Z,14.80
2022-10-13T13:23:53.691Z,21.50
2022-10-13T13:28:56.725Z,14.50
2022-10-13T13:31:26.674Z,27.50
2022-10-13T13:33:55.293Z,19.80
2022-10-13T13:36:26.129Z,14.30
2022-10-13T13:38:54.923Z,17.60
2022-10-13T13:41:27.870Z,15.30
2022-10-13T13:46:27.852Z,15.70
2022-10-13T13:48:56.649Z,11.90
2022-10-13T13:51:25.376Z,13.00
2022-10-13T13:53:54.026Z,11.10
2022-10-13T13:56:22.606Z,13.70
2022-10-13T13:58:51.157Z,20.30
2022-10-13T14:01:19.698Z,13.20
2022-10-13T14:03:48.350Z,12.80
2022-10-13T14:06:20.835Z,14.00
2022-10-13T14:08:50.211Z,14.20
2022-10-13T14:11:19.237Z,14.60
2022-10-13T14:13:47.869Z,12.70
2022-10-13T14:16:18.352Z,12.70
2022-10-13T14:18:46.969Z,11.70
2022-10-13T14:21:15.471Z,16.40
2022-10-13T14:23:47.145Z,15.20
2022-10-13T14:26:16.191Z,14.90
2022-10-13T14:28:45.724Z,12.40
2022-10-13T14:31:14.296Z,16.00
2022-10-13T14:33:44.108Z,13.10
2022-10-13T14:36:12.693Z,15.10
2022-10-13T14:38:41.203Z,13.40
2022-10-13T14:41:10.004Z,13.60
2022-10-13T14:43:42.706Z,14.70
2022-10-13T14:46:11.595Z,16.60
2022-10-13T14:48:40.160Z,14.60
2022-10-13T14:51:10.966Z,13.00
2022-10-13T14:53:42.807Z,14.10
2022-10-13T14:56:26.600Z,12.70
2022-10-13T14:59:02.506Z,13.10
2022-10-13T15:01:38.814Z,11.90
2022-10-13T15:04:10.676Z,14.90
2022-10-13T15:06:40.385Z,14.90
2022-10-13T15:09:10.145Z,12.60
2022-10-13T15:11:39.071Z,12.60
2022-10-13T15:14:08.069Z,14.60
2022-10-13T15:16:38.098Z,14.50
2022-10-13T15:19:06.826Z,14.00
2022-10-13T15:21:35.651Z,14.30
2022-10-13T15:24:04.912Z,15.90
2022-10-13T15:26:36.967Z,15.10
2022-10-13T15:29:05.599Z,17.60
2022-10-13T15:31:34.101Z,21.90
2022-10-13T15:34:02.720Z,15.30
2022-10-13T15:36:31.273Z,15.50
2022-10-13T15:38:59.768Z,20.30
2022-10-13T15:41:28.363Z,16.40
2022-10-13T15:43:56.912Z,12.80
2022-10-13T15:46:27.548Z,14.60
2022-10-13T15:48:56.932Z,17.30
2022-10-13T15:51:27.156Z,17.30
2022-10-13T15:53:55.942Z,15.40
2022-10-13T15:56:24.947Z,18.40
2022-10-13T15:58:53.918Z,17.40
2022-10-13T16:01:22.630Z,16.50
2022-10-13T16:03:55.411Z,17.80
2022-10-13T16:06:25.035Z,14.40
2022-10-13T16:08:53.839Z,17.00
2022-10-13T16:11:23.747Z,17.90
2022-10-13T16:13:52.771Z,14.90
2022-10-13T16:16:22.588Z,16.90
2022-10-13T16:18:51.625Z,18.10
2022-10-13T16:21:26.254Z,18.10
2022-10-13T16:23:54.899Z,17.50
2022-10-13T16:26:24.294Z,19.00
2022-10-13T16:28:56.983Z,15.30
2022-10-13T16:31:25.809Z,16.50
2022-10-13T16:33:54.732Z,15.10
2022-10-13T16:36:24.801Z,17.00
2022-10-13T16:38:55.225Z,14.60
2022-10-13T16:41:24.443Z,16.60
2022-10-13T16:43:53.161Z,20.40
2022-10-13T16:46:21.744Z,15.00
2022-10-13T16:48:50.359Z,15.70
2022-10-13T16:51:22.736Z,18.80
2022-10-13T16:54:03.581Z,14.60
2022-10-13T16:56:33.399Z,17.80
2022-10-13T16:59:05.299Z,19.50
2022-10-13T17:01:36.444Z,16.90
2022-10-13T17:04:05.331Z,19.40
2022-10-13T17:06:34.077Z,21.30
2022-10-13T17:09:03.496Z,17.70
2022-10-13T17:11:37.735Z,18.00
2022-10-13T17:14:06.981Z,15.30
2022-10-13T17:16:36.259Z,19.50
2022-10-13T17:19:05.005Z,17.00
2022-10-13T17:21:37.626Z,21.00
2022-10-13T17:24:07.758Z,22.40
2022-10-13T17:26:36.895Z,16.20
2022-10-13T17:29:05.551Z,15.60
2022-10-13T17:31:34.159Z,20.30
2022-10-13T17:34:02.908Z,18.50
2022-10-13T17:36:34.600Z,19.20
2022-10-13T17:39:11.511Z,18.50
2022-10-13T17:41:41.533Z,19.20
2022-10-13T17:44:11.457Z,25.60
2022-10-13T17:46:42.490Z,22.00
2022-10-13T17:49:12.815Z,15.90
2022-10-13T17:51:42.983Z,21.10
2022-10-13T17:54:15.987Z,17.50
2022-10-13T17:56:47.610Z,20.80
2022-10-13T17:59:17.820Z,22.50
2022-10-13T18:01:46.901Z,19.40
2022-10-13T18:04:19.342Z,16.10
2022-10-13T18:06:48.126Z,17.20
2022-10-13T18:09:20.442Z,21.50
2022-10-13T18:11:51.164Z,20.00
2022-10-13T18:14:25.116Z,25.40
2022-10-13T18:16:53.790Z,18.20
2022-10-13T18:19:25.101Z,18.20
2022-10-13T18:21:53.711Z,18.80
2022-10-13T18:24:22.479Z,19.30
2022-10-13T18:26:51.194Z,18.00
2022-10-13T18:29:20.464Z,20.70
2022-10-13T18:31:49.087Z,22.80
2022-10-13T18:34:17.952Z,19.70
2022-10-13T18:36:51.061Z,19.40
2022-10-13T18:39:21.797Z,17.70
2022-10-13T18:41:51.745Z,17.60
2022-10-13T18:44:26.800Z,14.80
2022-10-13T18:47:03.739Z,19.20
2022-10-13T18:49:35.191Z,17.90
2022-10-13T18:52:04.373Z,17.00
2022-10-13T18:54:33.300Z,15.90
2022-10-13T18:57:02.011Z,16.20
2022-10-13T18:59:42.012Z,16.00
2022-10-13T19:02:14.947Z,19.20
2022-10-13T19:04:43.486Z,17.00
2022-10-13T19:07:12.136Z,14.80
2022-10-13T19:09:40.717Z,15.60
2022-10-13T19:12:09.334Z,13.60
2022-10-13T19:14:38.013Z,17.30
2022-10-13T19:17:06.560Z,15.70
2022-10-13T19:19:38.249Z,16.50
2022-10-13T19:22:08.001Z,15.50
2022-10-13T19:24:36.759Z,18.10
2022-10-13T19:27:05.343Z,17.50
2022-10-13T19:29:35.709Z,18.00
2022-10-13T19:32:04.485Z,15.90
2022-10-13T19:34:33.503Z,18.70
2022-10-13T19:37:03.685Z,15.80
2022-10-13T19:39:32.309Z,39.80
2022-10-13T19:42:01.799Z,20.10
2022-10-13T19:44:36.057Z,19.60
2022-10-13T19:47:13.222Z,24.40
2022-10-13T19:49:42.319Z,18.20
2022-10-13T19:52:10.914Z,19.90
2022-10-13T19:54:40.302Z,18.00
2022-10-13T19:57:10.252Z,22.60
2022-10-13T19:59:38.866Z,21.10
2022-10-13T20:02:07.438Z,18.30
2022-10-13T20:04:36.209Z,18.70
2022-10-13T20:07:07.450Z,20.80
2022-10-13T20:09:38.875Z,24.50
2022-10-13T20:12:09.073Z,19.20
2022-10-13T20:14:42.087Z,19.90
2022-10-13T20:17:10.631Z,18.90
2022-10-13T20:19:39.215Z,19.60
2022-10-13T20:22:07.924Z,20.30
2022-10-13T20:24:36.546Z,16.50
2022-10-13T20:27:05.082Z,18.50
2022-10-13T20:29:33.583Z,18.40
2022-10-13T20:32:02.254Z,18.70
2022-10-13T20:34:31.680Z,22.40
2022-10-13T20:37:00.435Z,17.60
2022-10-13T20:39:29.943Z,19.60
2022-10-13T20:41:58.990Z,20.00
2022-10-13T20:44:27.906Z,20.30
2022-10-13T20:46:56.643Z,25.30
2022-10-13T20:49:26.372Z,21.30
2022-10-13T20:51:54.870Z,21.00
2022-10-13T20:54:23.703Z,21.00
2022-10-13T20:56:53.066Z,18.20
2022-10-13T20:59:21.532Z,20.00
2022-10-13T21:01:50.244Z,19.10
2022-10-13T21:04:18.810Z,16.90
2022-10-13T21:06:47.323Z,17.80
2022-10-13T21:09:15.966Z,19.60
2022-10-13T21:12:05.046Z,19.00
2022-10-13T21:14:43.428Z,19.10
2022-10-13T21:17:23.207Z,18.80
2022-10-13T21:19:55.708Z,19.20
2022-10-13T21:22:24.467Z,20.20
2022-10-13T21:24:53.693Z,20.30
2022-10-13T21:27:22.741Z,18.40
2022-10-13T21:29:51.756Z,18.60
2022-10-13T21:32:40.091Z,18.90
2022-10-13T21:35:17.391Z,16.90
2022-10-13T21:37:46.088Z,17.60
2022-10-13T21:40:15.122Z,17.20
2022-10-13T21:42:43.811Z,19.90
2022-10-13T21:45:12.658Z,17.70
2022-10-13T21:47:41.438Z,17.60
2022-10-13T21:50:10.423Z,17.40
2022-10-13T21:52:38.955Z,16.50
2022-10-13T21:55:08.321Z,18.60
2022-10-13T21:57:36.929Z,18.30
2022-10-13T22:00:06.865Z,18.60
2022-10-13T22:03:01.147Z,17.60
2022-10-13T22:05:43.004Z,17.90
2022-10-13T22:08:11.531Z,16.50
2022-10-13T22:10:40.035Z,15.30
2022-10-13T22:13:08.602Z,17.70
2022-10-13T22:15:37.112Z,17.80
2022-10-13T22:18:05.872Z,20.40
2022-10-13T22:20:37.426Z,15.10
2022-10-13T22:23:06.111Z,16.60
2022-10-13T22:25:35.334Z,14.40
2022-10-13T22:28:03.912Z,16.50
2022-10-13T22:30:32.471Z,16.60
2022-10-13T22:33:01.060Z,13.40
2022-10-13T22:35:29.823Z,15.20
2022-10-13T22:37:58.311Z,15.30
2022-10-13T22:40:26.962Z,17.40
2022-10-13T22:42:55.465Z,16.30
2022-10-13T22:45:24.232Z,12.60
2022-10-13T22:47:52.957Z,16.30
2022-10-13T22:50:21.524Z,15.50
2022-10-13T22:52:51.193Z,17.00
2022-10-13T22:55:19.738Z,14.00
2022-10-13T22:57:48.349Z,16.10
2022-10-13T23:00:17.132Z,13.10
2022-10-13T23:02:47.776Z,14.50
2022-10-13T23:05:16.268Z,15.10
2022-10-13T23:07:44.831Z,14.50
2022-10-13T23:10:13.421Z,12.70
2022-10-13T23:12:43.878Z,14.20
2022-10-13T23:15:12.468Z,14.80
2022-10-13T23:17:52.663Z,13.80
2022-10-13T23:20:21.290Z,14.10
2022-10-13T23:22:53.320Z,13.20
2022-10-13T23:25:21.902Z,10.40
2022-10-13T23:27:50.435Z,11.30
2022-10-13T23:30:19.161Z,12.40
2022-10-13T23:32:47.723Z,13.50
2022-10-13T23:35:16.828Z,11.90
2022-10-13T23:37:45.421Z,16.00
2022-10-13T23:40:14.035Z,10.70
2022-10-13T23:42:42.538Z,12.40
2022-10-13T23:45:11.469Z,11.40
2022-10-13T23:47:39.988Z,11.70
2022-10-13T23:50:09.194Z,12.10
2022-10-13T23:52:37.776Z,13.00
2022-10-13T23:55:06.605Z,15.30
2022-10-13T23:57:35.141Z,11.20
